sensor_id;sensor_type;location;lat;lon;timestamp;temperature;humidity
32640;DHT22;19049;52.524;11.468;2022-10-22T00:00:15;14.30;98.20
32640;DHT22;19049;52.524;11.468;2022-10-22T00:02:42;14.30;98.20
32640;DHT22;19049;52.524;11.468;2022-10-22T00:05:12;14.30;98.10
32640;DHT22;19049;52.524;11.468;2022-10-22T00:07:40;14.30;97.90
32640;DHT22;19049;52.524;11.468;2022-10-22T00:10:07;14.30;97.80
32640;DHT22;19049;52.524;11.468;2022-10-22T00:12:33;14.20;97.80
32640;DHT22;19049;52.524;11.468;2022-10-22T00:15:05;14.20;97.80
32640;DHT22;19049;52.524;11.468;2022-10-22T00:17:31;14.20;97.90
32640;DHT22;19049;52.524;11.468;2022-10-22T00:19:57;14.20;98.00
32640;DHT22;19049;52.524;11.468;2022-10-22T00:22:22;14.10;98.10
32640;DHT22;19049;52.524;11.468;2022-10-22T00:24:48;14.10;98.10
32640;DHT22;19049;52.524;11.468;2022-10-22T00:27:16;14.10;98.00
32640;DHT22;19049;52.524;11.468;2022-10-22T00:29:42;14.10;97.90
32640;DHT22;19049;52.524;11.468;2022-10-22T00:32:08;14.00;97.70
32640;DHT22;19049;52.524;11.468;2022-10-22T00:34:33;14.00;97.70
32640;DHT22;19049;52.524;11.468;2022-10-22T00:37:01;13.90;97.70
32640;DHT22;19049;52.524;11.468;2022-10-22T00:39:27;13.90;97.80
32640;DHT22;19049;52.524;11.468;2022-10-22T00:41:55;13.80;97.90
32640;DHT22;19049;52.524;11.468;2022-10-22T00:47:25;13.80;98.20
32640;DHT22;19049;52.524;11.468;2022-10-22T00:49:53;13.80;98.30
32640;DHT22;19049;52.524;11.468;2022-10-22T00:52:19;13.80;98.30
32640;DHT22;19049;52.524;11.468;2022-10-22T00:54:45;13.80;98.40
32640;DHT22;19049;52.524;11.468;2022-10-22T00:57:11;13.90;98.40
32640;DHT22;19049;52.524;11.468;2022-10-22T00:59:40;13.90;98.40
32640;DHT22;19049;52.524;11.468;2022-10-22T01:02:05;13.90;98.40
32640;DHT22;19049;52.524;11.468;2022-10-22T01:04:31;13.90;98.70
32640;DHT22;19049;52.524;11.468;2022-10-22T01:06:56;13.90;98.40
32640;DHT22;19049;52.524;11.468;2022-10-22T01:25:50;14.00;98.70
32640;DHT22;19049;52.524;11.468;2022-10-22T01:31:08;13.90;98.30
32640;DHT22;19049;52.524;11.468;2022-10-22T01:33:36;13.90;98.20
32640;DHT22;19049;52.524;11.468;2022-10-22T01:36:03;13.90;98.20
32640;DHT22;19049;52.524;11.468;2022-10-22T01:38:29;13.90;98.20
32640;DHT22;19049;52.524;11.468;2022-10-22T01:40:56;13.90;98.20
32640;DHT22;19049;52.524;11.468;2022-10-22T01:43:22;13.90;98.10
32640;DHT22;19049;52.524;11.468;2022-10-22T01:45:56;13.80;98.10
32640;DHT22;19049;52.524;11.468;2022-10-22T01:53:58;13.70;98.00
32640;DHT22;19049;52.524;11.468;2022-10-22T02:04:22;13.50;97.90
32640;DHT22;19049;52.524;11.468;2022-10-22T02:06:50;13.50;98.00
32640;DHT22;19049;52.524;11.468;2022-10-22T02:09:19;13.50;98.10
32640;DHT22;19049;52.524;11.468;2022-10-22T02:11:46;13.40;98.20
32640;DHT22;19049;52.524;11.468;2022-10-22T02:14:15;13.40;98.30
32640;DHT22;19049;52.524;11.468;2022-10-22T02:16:44;13.40;98.30
32640;DHT22;19049;52.524;11.468;2022-10-22T02:21:48;13.40;98.20
32640;DHT22;19049;52.524;11.468;2022-10-22T02:24:14;13.40;98.10
32640;DHT22;19049;52.524;11.468;2022-10-22T02:29:35;13.30;98.00
32640;DHT22;19049;52.524;11.468;2022-10-22T02:32:06;13.30;97.90
32640;DHT22;19049;52.524;11.468;2022-10-22T02:34:33;13.20;97.90
32640;DHT22;19049;52.524;11.468;2022-10-22T02:37:00;13.20;98.00
32640;DHT22;19049;52.524;11.468;2022-10-22T02:39:27;13.20;98.20
32640;DHT22;19049;52.524;11.468;2022-10-22T02:41:54;13.20;98.30
32640;DHT22;19049;52.524;11.468;2022-10-22T02:44:24;13.10;98.30
32640;DHT22;19049;52.524;11.468;2022-10-22T02:46:50;13.20;98.50
32640;DHT22;19049;52.524;11.468;2022-10-22T02:49:16;13.20;98.60
32640;DHT22;19049;52.524;11.468;2022-10-22T02:51:41;13.20;98.60
32640;DHT22;19049;52.524;11.468;2022-10-22T02:54:07;13.20;98.70
32640;DHT22;19049;52.524;11.468;2022-10-22T02:56:33;13.20;98.60
32640;DHT22;19049;52.524;11.468;2022-10-22T02:58:59;13.30;98.50
32640;DHT22;19049;52.524;11.468;2022-10-22T03:01:27;13.30;98.40
32640;DHT22;19049;52.524;11.468;2022-10-22T03:03:52;13.30;98.40
32640;DHT22;19049;52.524;11.468;2022-10-22T03:06:23;13.30;98.40
32640;DHT22;19049;52.524;11.468;2022-10-22T03:08:51;13.30;98.50
32640;DHT22;19049;52.524;11.468;2022-10-22T03:11:17;13.30;98.60
32640;DHT22;19049;52.524;11.468;2022-10-22T03:13:42;13.30;98.70
32640;DHT22;19049;52.524;11.468;2022-10-22T03:16:08;13.40;98.90
32640;DHT22;19049;52.524;11.468;2022-10-22T03:18:34;13.40;98.90
32640;DHT22;19049;52.524;11.468;2022-10-22T03:21:12;13.50;98.90
32640;DHT22;19049;52.524;11.468;2022-10-22T03:23:42;13.50;98.90
32640;DHT22;19049;52.524;11.468;2022-10-22T03:26:09;13.50;98.80
32640;DHT22;19049;52.524;11.468;2022-10-22T03:28:37;13.60;98.80
32640;DHT22;19049;52.524;11.468;2022-10-22T03:31:04;13.60;98.60
32640;DHT22;19049;52.524;11.468;2022-10-22T03:33:30;13.60;98.60
32640;DHT22;19049;52.524;11.468;2022-10-22T03:35:55;13.60;98.40
32640;DHT22;19049;52.524;11.468;2022-10-22T03:38:21;13.50;98.40
32640;DHT22;19049;52.524;11.468;2022-10-22T03:40:47;13.50;98.30
32640;DHT22;19049;52.524;11.468;2022-10-22T03:43:13;13.50;98.20
32640;DHT22;19049;52.524;11.468;2022-10-22T03:45:39;13.50;98.20
32640;DHT22;19049;52.524;11.468;2022-10-22T03:48:05;13.50;98.20
32640;DHT22;19049;52.524;11.468;2022-10-22T03:50:30;13.50;98.20
32640;DHT22;19049;52.524;11.468;2022-10-22T03:52:56;13.40;98.20
32640;DHT22;19049;52.524;11.468;2022-10-22T03:55:23;13.40;98.20
32640;DHT22;19049;52.524;11.468;2022-10-22T03:57:49;13.40;98.20
32640;DHT22;19049;52.524;11.468;2022-10-22T04:00:14;13.30;98.10
32640;DHT22;19049;52.524;11.468;2022-10-22T04:02:40;13.30;98.10
32640;DHT22;19049;52.524;11.468;2022-10-22T04:05:09;13.20;98.10
32640;DHT22;19049;52.524;11.468;2022-10-22T04:07:45;13.20;98.10
32640;DHT22;19049;52.524;11.468;2022-10-22T04:10:15;13.20;98.10
32640;DHT22;19049;52.524;11.468;2022-10-22T04:12:41;13.10;98.00
32640;DHT22;19049;52.524;11.468;2022-10-22T04:15:07;13.10;98.00
32640;DHT22;19049;52.524;11.468;2022-10-22T04:17:36;13.10;98.00
32640;DHT22;19049;52.524;11.468;2022-10-22T04:20:02;13.10;98.50
32640;DHT22;19049;52.524;11.468;2022-10-22T04:22:28;13.00;98.10
32640;DHT22;19049;52.524;11.468;2022-10-22T04:24:54;13.00;98.10
32640;DHT22;19049;52.524;11.468;2022-10-22T04:27:20;13.00;98.20
32640;DHT22;19049;52.524;11.468;2022-10-22T04:29:45;13.00;98.10
32640;DHT22;19049;52.524;11.468;2022-10-22T04:32:13;13.00;98.10
32640;DHT22;19049;52.524;11.468;2022-10-22T04:34:39;12.90;98.10
32640;DHT22;19049;52.524;11.468;2022-10-22T04:37:04;12.90;98.10
32640;DHT22;19049;52.524;11.468;2022-10-22T04:39:30;12.90;98.10
32640;DHT22;19049;52.524;11.468;2022-10-22T04:41:56;12.80;98.10
32640;DHT22;19049;52.524;11.468;2022-10-22T04:44:24;12.80;98.10
32640;DHT22;19049;52.524;11.468;2022-10-22T04:46:49;12.80;98.00
32640;DHT22;19049;52.524;11.468;2022-10-22T04:49:15;12.80;98.00
32640;DHT22;19049;52.524;11.468;2022-10-22T04:51:43;12.70;98.00
32640;DHT22;19049;52.524;11.468;2022-10-22T04:54:09;12.70;98.00
32640;DHT22;19049;52.524;11.468;2022-10-22T04:56:34;12.60;98.00
32640;DHT22;19049;52.524;11.468;2022-10-22T04:59:03;12.60;98.00
32640;DHT22;19049;52.524;11.468;2022-10-22T05:01:36;12.60;98.10
32640;DHT22;19049;52.524;11.468;2022-10-22T05:04:04;12.50;98.20
32640;DHT22;19049;52.524;11.468;2022-10-22T05:06:31;12.50;98.30
32640;DHT22;19049;52.524;11.468;2022-10-22T05:09:05;12.50;98.30
32640;DHT22;19049;52.524;11.468;2022-10-22T05:11:36;12.50;98.20
32640;DHT22;19049;52.524;11.468;2022-10-22T05:14:05;12.50;98.10
32640;DHT22;19049;52.524;11.468;2022-10-22T05:16:32;12.50;98.20
32640;DHT22;19049;52.524;11.468;2022-10-22T05:19:01;12.40;98.20
32640;DHT22;19049;52.524;11.468;2022-10-22T05:21:27;12.40;98.30
32640;DHT22;19049;52.524;11.468;2022-10-22T05:23:54;12.40;98.30
32640;DHT22;19049;52.524;11.468;2022-10-22T05:26:21;12.40;98.40
32640;DHT22;19049;52.524;11.468;2022-10-22T05:28:48;12.40;98.40
32640;DHT22;19049;52.524;11.468;2022-10-22T05:31:14;12.40;98.40
32640;DHT22;19049;52.524;11.468;2022-10-22T05:33:41;12.40;98.30
32640;DHT22;19049;52.524;11.468;2022-10-22T05:36:10;12.40;98.30
32640;DHT22;19049;52.524;11.468;2022-10-22T05:38:36;12.40;98.30
32640;DHT22;19049;52.524;11.468;2022-10-22T05:41:05;12.30;98.30
32640;DHT22;19049;52.524;11.468;2022-10-22T05:43:31;12.30;98.40
32640;DHT22;19049;52.524;11.468;2022-10-22T05:46:03;12.30;98.40
32640;DHT22;19049;52.524;11.468;2022-10-22T05:48:29;12.30;98.50
32640;DHT22;19049;52.524;11.468;2022-10-22T05:50:55;12.40;98.60
32640;DHT22;19049;52.524;11.468;2022-10-22T05:53:21;12.30;98.60
32640;DHT22;19049;52.524;11.468;2022-10-22T05:55:47;12.40;98.60
32640;DHT22;19049;52.524;11.468;2022-10-22T05:58:13;12.40;98.50
32640;DHT22;19049;52.524;11.468;2022-10-22T06:00:41;12.30;98.30
32640;DHT22;19049;52.524;11.468;2022-10-22T06:03:07;12.30;98.30
32640;DHT22;19049;52.524;11.468;2022-10-22T06:05:36;12.30;98.20
32640;DHT22;19049;52.524;11.468;2022-10-22T06:08:02;12.30;98.20
32640;DHT22;19049;52.524;11.468;2022-10-22T06:10:31;12.20;98.30
32640;DHT22;19049;52.524;11.468;2022-10-22T06:12:59;12.20;98.40
32640;DHT22;19049;52.524;11.468;2022-10-22T06:15:27;12.20;98.50
32640;DHT22;19049;52.524;11.468;2022-10-22T06:17:53;12.20;98.70
32640;DHT22;19049;52.524;11.468;2022-10-22T06:20:18;12.30;98.80
32640;DHT22;19049;52.524;11.468;2022-10-22T06:22:44;12.30;98.80
32640;DHT22;19049;52.524;11.468;2022-10-22T06:25:10;12.30;98.90
32640;DHT22;19049;52.524;11.468;2022-10-22T06:27:39;12.30;98.90
32640;DHT22;19049;52.524;11.468;2022-10-22T06:30:05;12.40;98.90
32640;DHT22;19049;52.524;11.468;2022-10-22T06:32:31;12.40;98.90
32640;DHT22;19049;52.524;11.468;2022-10-22T06:34:56;12.40;98.80
32640;DHT22;19049;52.524;11.468;2022-10-22T06:37:24;12.50;98.80
32640;DHT22;19049;52.524;11.468;2022-10-22T06:39:50;12.50;98.70
32640;DHT22;19049;52.524;11.468;2022-10-22T06:42:16;12.50;98.70
32640;DHT22;19049;52.524;11.468;2022-10-22T06:44:44;12.50;98.70
32640;DHT22;19049;52.524;11.468;2022-10-22T06:47:10;12.50;98.60
32640;DHT22;19049;52.524;11.468;2022-10-22T06:49:43;12.50;98.70
32640;DHT22;19049;52.524;11.468;2022-10-22T06:52:08;12.50;98.70
32640;DHT22;19049;52.524;11.468;2022-10-22T06:57:46;12.60;98.70
32640;DHT22;19049;52.524;11.468;2022-10-22T07:00:15;12.60;98.70
32640;DHT22;19049;52.524;11.468;2022-10-22T07:02:41;12.60;98.80
32640;DHT22;19049;52.524;11.468;2022-10-22T07:05:17;12.60;98.80
32640;DHT22;19049;52.524;11.468;2022-10-22T07:07:50;12.60;98.80
32640;DHT22;19049;52.524;11.468;2022-10-22T07:10:16;12.70;98.90
32640;DHT22;19049;52.524;11.468;2022-10-22T07:12:42;12.70;99.00
32640;DHT22;19049;52.524;11.468;2022-10-22T07:15:08;12.80;99.00
32640;DHT22;19049;52.524;11.468;2022-10-22T07:17:33;12.80;99.00
32640;DHT22;19049;52.524;11.468;2022-10-22T07:19:59;12.90;99.20
32640;DHT22;19049;52.524;11.468;2022-10-22T07:22:25;13.00;99.20
32640;DHT22;19049;52.524;11.468;2022-10-22T07:24:51;13.10;99.30
32640;DHT22;19049;52.524;11.468;2022-10-22T07:27:19;13.10;99.30
32640;DHT22;19049;52.524;11.468;2022-10-22T07:29:47;13.20;99.40
32640;DHT22;19049;52.524;11.468;2022-10-22T07:32:12;13.30;99.40
32640;DHT22;19049;52.524;11.468;2022-10-22T07:34:38;13.40;99.50
32640;DHT22;19049;52.524;11.468;2022-10-22T07:37:07;13.50;99.60
32640;DHT22;19049;52.524;11.468;2022-10-22T07:39:32;13.60;99.70
32640;DHT22;19049;52.524;11.468;2022-10-22T07:41:58;13.70;99.80
32640;DHT22;19049;52.524;11.468;2022-10-22T07:44:26;13.90;99.90
32640;DHT22;19049;52.524;11.468;2022-10-22T07:46:54;14.00;99.90
32640;DHT22;19049;52.524;11.468;2022-10-22T07:49:20;14.20;99.90
32640;DHT22;19049;52.524;11.468;2022-10-22T07:51:45;14.30;99.90
32640;DHT22;19049;52.524;11.468;2022-10-22T07:54:15;14.40;99.90
32640;DHT22;19049;52.524;11.468;2022-10-22T07:56:43;14.50;99.90
32640;DHT22;19049;52.524;11.468;2022-10-22T07:59:09;14.70;99.90
32640;DHT22;19049;52.524;11.468;2022-10-22T08:01:37;14.80;99.90
32640;DHT22;19049;52.524;11.468;2022-10-22T08:04:03;14.90;99.90
32640;DHT22;19049;52.524;11.468;2022-10-22T08:06:28;15.00;99.90
32640;DHT22;19049;52.524;11.468;2022-10-22T08:08:54;15.20;99.90
32640;DHT22;19049;52.524;11.468;2022-10-22T08:11:22;15.30;99.90
32640;DHT22;19049;52.524;11.468;2022-10-22T08:13:48;15.40;99.90
32640;DHT22;19049;52.524;11.468;2022-10-22T08:16:13;15.50;99.90
32640;DHT22;19049;52.524;11.468;2022-10-22T08:18:39;15.60;99.90
32640;DHT22;19049;52.524;11.468;2022-10-22T08:21:07;15.70;99.90
32640;DHT22;19049;52.524;11.468;2022-10-22T08:23:33;15.80;99.90
32640;DHT22;19049;52.524;11.468;2022-10-22T08:26:06;15.90;99.90
32640;DHT22;19049;52.524;11.468;2022-10-22T08:28:45;16.00;99.90
32640;DHT22;19049;52.524;11.468;2022-10-22T08:31:11;16.10;99.90
32640;DHT22;19049;52.524;11.468;2022-10-22T08:33:37;16.20;99.80
32640;DHT22;19049;52.524;11.468;2022-10-22T08:36:03;16.40;99.90
32640;DHT22;19049;52.524;11.468;2022-10-22T08:38:31;16.40;99.60
32640;DHT22;19049;52.524;11.468;2022-10-22T08:41:12;16.50;99.40
32640;DHT22;19049;52.524;11.468;2022-10-22T08:46:50;16.80;99.40
32640;DHT22;19049;52.524;11.468;2022-10-22T08:49:23;16.90;99.90
32640;DHT22;19049;52.524;11.468;2022-10-22T08:51:55;17.10;99.90
32640;DHT22;19049;52.524;11.468;2022-10-22T08:54:46;17.40;99.90
32640;DHT22;19049;52.524;11.468;2022-10-22T08:59:54;18.10;99.90
32640;DHT22;19049;52.524;11.468;2022-10-22T09:02:33;18.40;99.90
32640;DHT22;19049;52.524;11.468;2022-10-22T09:07:49;19.10;98.90
32640;DHT22;19049;52.524;11.468;2022-10-22T09:10:22;19.30;97.40
32640;DHT22;19049;52.524;11.468;2022-10-22T09:12:56;19.50;97.20
32640;DHT22;19049;52.524;11.468;2022-10-22T09:15:24;19.50;96.60
32640;DHT22;19049;52.524;11.468;2022-10-22T09:20:53;19.50;96.60
32640;DHT22;19049;52.524;11.468;2022-10-22T09:25:52;19.70;97.60
32640;DHT22;19049;52.524;11.468;2022-10-22T09:28:20;19.90;97.30
32640;DHT22;19049;52.524;11.468;2022-10-22T09:30:45;20.10;97.10
32640;DHT22;19049;52.524;11.468;2022-10-22T09:33:26;20.30;96.80
32640;DHT22;19049;52.524;11.468;2022-10-22T09:36:00;20.60;97.10
32640;DHT22;19049;52.524;11.468;2022-10-22T09:38:35;20.80;96.90
32640;DHT22;19049;52.524;11.468;2022-10-22T09:41:08;21.00;96.60
32640;DHT22;19049;52.524;11.468;2022-10-22T09:43:33;21.20;96.30
32640;DHT22;19049;52.524;11.468;2022-10-22T09:46:06;21.30;96.10
32640;DHT22;19049;52.524;11.468;2022-10-22T09:48:38;21.40;95.60
32640;DHT22;19049;52.524;11.468;2022-10-22T09:51:09;21.60;95.80
32640;DHT22;19049;52.524;11.468;2022-10-22T09:53:46;21.70;95.50
32640;DHT22;19049;52.524;11.468;2022-10-22T09:56:36;21.80;94.00
32640;DHT22;19049;52.524;11.468;2022-10-22T09:59:15;22.00;93.90
32640;DHT22;19049;52.524;11.468;2022-10-22T10:01:44;22.10;94.40
32640;DHT22;19049;52.524;11.468;2022-10-22T10:04:15;22.20;93.30
32640;DHT22;19049;52.524;11.468;2022-10-22T10:06:43;22.40;93.10
32640;DHT22;19049;52.524;11.468;2022-10-22T10:09:20;22.50;92.70
32640;DHT22;19049;52.524;11.468;2022-10-22T10:25:34;23.30;93.80
32640;DHT22;19049;52.524;11.468;2022-10-22T10:31:21;23.50;92.60
32640;DHT22;19049;52.524;11.468;2022-10-22T10:36:37;23.70;92.10
32640;DHT22;19049;52.524;11.468;2022-10-22T10:39:23;23.70;91.60
32640;DHT22;19049;52.524;11.468;2022-10-22T10:49:45;24.30;90.10
32640;DHT22;19049;52.524;11.468;2022-10-22T10:52:30;24.40;88.50
32640;DHT22;19049;52.524;11.468;2022-10-22T11:00:36;24.70;87.40
32640;DHT22;19049;52.524;11.468;2022-10-22T11:05:54;24.90;86.30
32640;DHT22;19049;52.524;11.468;2022-10-22T11:11:58;25.00;81.20
32640;DHT22;19049;52.524;11.468;2022-10-22T11:14:32;25.00;80.10
32640;DHT22;19049;52.524;11.468;2022-10-22T11:17:11;25.10;84.60
32640;DHT22;19049;52.524;11.468;2022-10-22T11:19:47;25.10;84.60
32640;DHT22;19049;52.524;11.468;2022-10-22T11:28:20;25.20;78.50
32640;DHT22;19049;52.524;11.468;2022-10-22T11:30:46;25.30;77.50
32640;DHT22;19049;52.524;11.468;2022-10-22T11:33:17;25.40;76.10
32640;DHT22;19049;52.524;11.468;2022-10-22T11:35:48;25.40;73.80
32640;DHT22;19049;52.524;11.468;2022-10-22T11:38:17;25.40;73.40
32640;DHT22;19049;52.524;11.468;2022-10-22T11:41:00;25.40;73.50
32640;DHT22;19049;52.524;11.468;2022-10-22T11:46:23;25.40;73.80
32640;DHT22;19049;52.524;11.468;2022-10-22T11:51:40;25.60;73.30
32640;DHT22;19049;52.524;11.468;2022-10-22T12:04:53;26.40;67.20
32640;DHT22;19049;52.524;11.468;2022-10-22T12:07:34;26.60;71.10
32640;DHT22;19049;52.524;11.468;2022-10-22T12:10:18;26.70;63.70
32640;DHT22;19049;52.524;11.468;2022-10-22T12:12:54;26.70;64.80
32640;DHT22;19049;52.524;11.468;2022-10-22T12:15:27;26.80;67.00
32640;DHT22;19049;52.524;11.468;2022-10-22T12:18:01;26.80;62.90
32640;DHT22;19049;52.524;11.468;2022-10-22T12:20:31;26.80;62.50
32640;DHT22;19049;52.524;11.468;2022-10-22T12:22:57;26.90;65.30
32640;DHT22;19049;52.524;11.468;2022-10-22T12:25:28;26.90;63.20
32640;DHT22;19049;52.524;11.468;2022-10-22T12:27:57;26.90;62.50
32640;DHT22;19049;52.524;11.468;2022-10-22T12:30:28;26.90;62.70
32640;DHT22;19049;52.524;11.468;2022-10-22T12:32:56;27.00;65.10
32640;DHT22;19049;52.524;11.468;2022-10-22T12:35:24;27.20;66.80
32640;DHT22;19049;52.524;11.468;2022-10-22T12:37:51;27.30;66.90
32640;DHT22;19049;52.524;11.468;2022-10-22T12:40:33;27.40;65.40
32640;DHT22;19049;52.524;11.468;2022-10-22T12:43:06;27.50;63.30
32640;DHT22;19049;52.524;11.468;2022-10-22T12:45:33;27.50;61.70
32640;DHT22;19049;52.524;11.468;2022-10-22T12:48:18;27.40;59.60
32640;DHT22;19049;52.524;11.468;2022-10-22T12:50:49;27.30;60.10
32640;DHT22;19049;52.524;11.468;2022-10-22T12:53:32;27.20;60.60
32640;DHT22;19049;52.524;11.468;2022-10-22T12:56:01;27.10;59.50
32640;DHT22;19049;52.524;11.468;2022-10-22T12:58:40;27.00;59.80
32640;DHT22;19049;52.524;11.468;2022-10-22T13:01:09;26.90;60.10
32640;DHT22;19049;52.524;11.468;2022-10-22T13:03:46;26.90;61.40
32640;DHT22;19049;52.524;11.468;2022-10-22T13:11:36;27.00;59.80
32640;DHT22;19049;52.524;11.468;2022-10-22T13:14:20;26.80;60.20
32640;DHT22;19049;52.524;11.468;2022-10-22T13:22:34;26.50;60.50
32640;DHT22;19049;52.524;11.468;2022-10-22T13:27:57;26.40;61.50
32640;DHT22;19049;52.524;11.468;2022-10-22T13:30:26;26.40;61.90
32640;DHT22;19049;52.524;11.468;2022-10-22T13:32:55;26.40;62.20
32640;DHT22;19049;52.524;11.468;2022-10-22T13:35:25;26.10;62.40
32640;DHT22;19049;52.524;11.468;2022-10-22T13:37:52;25.80;63.40
32640;DHT22;19049;52.524;11.468;2022-10-22T13:40:18;25.50;64.20
32640;DHT22;19049;52.524;11.468;2022-10-22T13:42:44;25.20;62.10
32640;DHT22;19049;52.524;11.468;2022-10-22T13:45:10;25.10;63.50
32640;DHT22;19049;52.524;11.468;2022-10-22T13:47:36;25.00;63.90
32640;DHT22;19049;52.524;11.468;2022-10-22T13:50:13;24.90;63.90
32640;DHT22;19049;52.524;11.468;2022-10-22T13:52:41;24.90;64.60
32640;DHT22;19049;52.524;11.468;2022-10-22T13:55:33;25.00;66.70
32640;DHT22;19049;52.524;11.468;2022-10-22T13:58:18;25.00;65.50
32640;DHT22;19049;52.524;11.468;2022-10-22T14:00:47;25.30;66.00
32640;DHT22;19049;52.524;11.468;2022-10-22T14:03:19;25.50;65.00
32640;DHT22;19049;52.524;11.468;2022-10-22T14:05:45;25.70;64.40
32640;DHT22;19049;52.524;11.468;2022-10-22T14:08:14;26.00;66.30
32640;DHT22;19049;52.524;11.468;2022-10-22T14:10:42;26.20;66.20
32640;DHT22;19049;52.524;11.468;2022-10-22T14:13:12;26.40;65.60
32640;DHT22;19049;52.524;11.468;2022-10-22T14:15:41;26.40;63.70
32640;DHT22;19049;52.524;11.468;2022-10-22T14:18:07;26.30;64.60
32640;DHT22;19049;52.524;11.468;2022-10-22T14:20:36;26.30;65.60
32640;DHT22;19049;52.524;11.468;2022-10-22T14:23:13;26.30;66.60
32640;DHT22;19049;52.524;11.468;2022-10-22T14:25:39;26.20;64.30
32640;DHT22;19049;52.524;11.468;2022-10-22T14:28:06;26.20;66.60
32640;DHT22;19049;52.524;11.468;2022-10-22T14:30:32;26.20;66.80
32640;DHT22;19049;52.524;11.468;2022-10-22T14:32:58;26.10;66.30
32640;DHT22;19049;52.524;11.468;2022-10-22T14:35:24;26.00;66.20
32640;DHT22;19049;52.524;11.468;2022-10-22T14:37:50;25.80;66.20
32640;DHT22;19049;52.524;11.468;2022-10-22T14:40:19;25.50;64.60
32640;DHT22;19049;52.524;11.468;2022-10-22T14:42:48;25.20;66.00
32640;DHT22;19049;52.524;11.468;2022-10-22T14:45:23;24.90;66.60
32640;DHT22;19049;52.524;11.468;2022-10-22T14:47:50;24.50;67.40
32640;DHT22;19049;52.524;11.468;2022-10-22T14:50:17;24.20;68.30
32640;DHT22;19049;52.524;11.468;2022-10-22T14:52:43;23.80;68.70
32640;DHT22;19049;52.524;11.468;2022-10-22T14:55:10;23.50;69.70
32640;DHT22;19049;52.524;11.468;2022-10-22T14:57:36;23.20;70.70
32640;DHT22;19049;52.524;11.468;2022-10-22T15:00:06;22.90;71.60
32640;DHT22;19049;52.524;11.468;2022-10-22T15:02:32;22.60;72.40
32640;DHT22;19049;52.524;11.468;2022-10-22T15:04:57;22.20;72.70
32640;DHT22;19049;52.524;11.468;2022-10-22T15:07:23;22.10;74.10
32640;DHT22;19049;52.524;11.468;2022-10-22T15:09:52;21.90;74.90
32640;DHT22;19049;52.524;11.468;2022-10-22T15:12:18;21.70;75.60
32640;DHT22;19049;52.524;11.468;2022-10-22T15:14:47;21.50;76.30
32640;DHT22;19049;52.524;11.468;2022-10-22T15:17:14;21.40;77.00
32640;DHT22;19049;52.524;11.468;2022-10-22T15:19:43;21.30;77.40
32640;DHT22;19049;52.524;11.468;2022-10-22T15:22:10;21.30;77.90
32640;DHT22;19049;52.524;11.468;2022-10-22T15:24:36;21.20;78.20
32640;DHT22;19049;52.524;11.468;2022-10-22T15:27:02;21.10;78.50
32640;DHT22;19049;52.524;11.468;2022-10-22T15:29:29;21.00;78.70
32640;DHT22;19049;52.524;11.468;2022-10-22T15:32:05;20.90;79.00
32640;DHT22;19049;52.524;11.468;2022-10-22T15:34:58;20.80;79.60
32640;DHT22;19049;52.524;11.468;2022-10-22T15:37:45;20.70;79.60
32640;DHT22;19049;52.524;11.468;2022-10-22T15:46:51;20.30;80.70
32640;DHT22;19049;52.524;11.468;2022-10-22T15:52:21;20.00;81.50
32640;DHT22;19049;52.524;11.468;2022-10-22T15:54:52;19.80;81.90
32640;DHT22;19049;52.524;11.468;2022-10-22T15:57:21;19.70;82.40
32640;DHT22;19049;52.524;11.468;2022-10-22T15:59:50;19.60;82.70
32640;DHT22;19049;52.524;11.468;2022-10-22T16:05:11;19.30;83.50
32640;DHT22;19049;52.524;11.468;2022-10-22T16:07:44;19.20;83.80
32640;DHT22;19049;52.524;11.468;2022-10-22T16:10:10;19.10;84.40
32640;DHT22;19049;52.524;11.468;2022-10-22T16:12:41;19.10;84.70
32640;DHT22;19049;52.524;11.468;2022-10-22T16:15:08;19.00;85.10
32640;DHT22;19049;52.524;11.468;2022-10-22T16:17:37;18.90;85.40
32640;DHT22;19049;52.524;11.468;2022-10-22T16:20:03;18.80;85.70
32640;DHT22;19049;52.524;11.468;2022-10-22T16:22:31;18.80;86.10
32640;DHT22;19049;52.524;11.468;2022-10-22T16:24:59;18.80;87.30
32640;DHT22;19049;52.524;11.468;2022-10-22T16:27:27;18.70;87.10
32640;DHT22;19049;52.524;11.468;2022-10-22T16:29:53;18.60;87.60
32640;DHT22;19049;52.524;11.468;2022-10-22T16:32:27;18.60;88.50
32640;DHT22;19049;52.524;11.468;2022-10-22T16:34:53;18.50;89.10
32640;DHT22;19049;52.524;11.468;2022-10-22T16:37:19;18.50;90.00
32640;DHT22;19049;52.524;11.468;2022-10-22T16:39:45;18.50;90.20
32640;DHT22;19049;52.524;11.468;2022-10-22T16:42:10;18.40;90.40
32640;DHT22;19049;52.524;11.468;2022-10-22T16:44:36;18.30;90.30
32640;DHT22;19049;52.524;11.468;2022-10-22T16:47:02;18.30;90.80
32640;DHT22;19049;52.524;11.468;2022-10-22T16:49:29;18.20;90.50
32640;DHT22;19049;52.524;11.468;2022-10-22T16:51:55;18.20;90.50
32640;DHT22;19049;52.524;11.468;2022-10-22T16:54:21;18.10;90.60
32640;DHT22;19049;52.524;11.468;2022-10-22T16:56:50;18.10;90.70
32640;DHT22;19049;52.524;11.468;2022-10-22T16:59:25;18.00;90.90
32640;DHT22;19049;52.524;11.468;2022-10-22T17:01:55;18.00;91.00
32640;DHT22;19049;52.524;11.468;2022-10-22T17:04:24;18.00;91.30
32640;DHT22;19049;52.524;11.468;2022-10-22T17:06:49;17.90;91.00
32640;DHT22;19049;52.524;11.468;2022-10-22T17:09:15;17.90;91.00
32640;DHT22;19049;52.524;11.468;2022-10-22T17:11:48;17.80;91.10
32640;DHT22;19049;52.524;11.468;2022-10-22T17:14:16;17.80;91.20
32640;DHT22;19049;52.524;11.468;2022-10-22T17:16:42;17.80;91.30
32640;DHT22;19049;52.524;11.468;2022-10-22T17:19:11;17.70;91.30
32640;DHT22;19049;52.524;11.468;2022-10-22T17:21:38;17.60;91.40
32640;DHT22;19049;52.524;11.468;2022-10-22T17:24:07;17.60;91.50
32640;DHT22;19049;52.524;11.468;2022-10-22T17:26:32;17.50;91.50
32640;DHT22;19049;52.524;11.468;2022-10-22T17:28:59;17.50;91.60
32640;DHT22;19049;52.524;11.468;2022-10-22T17:31:27;17.40;91.70
32640;DHT22;19049;52.524;11.468;2022-10-22T17:33:56;17.30;91.70
32640;DHT22;19049;52.524;11.468;2022-10-22T17:36:25;17.30;91.70
32640;DHT22;19049;52.524;11.468;2022-10-22T17:38:54;17.20;91.80
32640;DHT22;19049;52.524;11.468;2022-10-22T17:41:28;17.10;91.80
32640;DHT22;19049;52.524;11.468;2022-10-22T17:43:56;17.00;91.80
32640;DHT22;19049;52.524;11.468;2022-10-22T17:46:27;16.90;91.80
32640;DHT22;19049;52.524;11.468;2022-10-22T17:48:55;16.90;92.10
32640;DHT22;19049;52.524;11.468;2022-10-22T17:51:22;16.80;92.00